createdAt,value
2022-10-18T00:00:46.599Z,4.70
2022-10-18T00:03:16.560Z,4.80
2022-10-18T00:05:43.561Z,4.20
2022-10-18T00:08:10.668Z,3.60
2022-10-18T00:10:37.904Z,3.80
2022-10-18T00:13:05.975Z,3.60
2022-10-18T00:15:34.128Z,3.60
2022-10-18T00:18:01.215Z,3.90
2022-10-18T00:20:28.267Z,3.80
2022-10-18T00:22:55.647Z,4.00
2022-10-18T00:25:22.460Z,3.70
2022-10-18T00:27:49.232Z,3.70
2022-10-18T00:30:16.067Z,3.60
2022-10-18T00:32:43.322Z,4.00
2022-10-18T00:35:10.905Z,4.30
2022-10-18T00:37:37.848Z,3.80
2022-10-18T00:40:05.345Z,4.10
2022-10-18T00:42:34.184Z,4.10
2022-10-18T00:45:14.291Z,3.80
2022-10-18T00:47:42.628Z,4.10
2022-10-18T00:50:09.470Z,4.30
2022-10-18T00:52:49.045Z,3.70
2022-10-18T00:55:15.894Z,3.60
2022-10-18T00:57:43.175Z,3.90
2022-10-18T01:00:10.874Z,3.90
2022-10-18T01:02:41.737Z,4.00
2022-10-18T01:05:11.590Z,3.70
2022-10-18T01:07:59.101Z,4.40
2022-10-18T01:10:44.471Z,3.80
2022-10-18T01:13:24.838Z,3.80
2022-10-18T01:15:59.535Z,4.10
2022-10-18T01:18:48.240Z,4.00
2022-10-18T01:21:31.159Z,3.80
2022-10-18T01:24:23.248Z,3.60
2022-10-18T01:26:58.305Z,4.00
2022-10-18T01:29:37.483Z,3.90
2022-10-18T01:32:07.606Z,4.20
2022-10-18T01:34:35.902Z,3.40
2022-10-18T01:37:04.808Z,3.80
2022-10-18T01:39:35.529Z,3.70
2022-10-18T01:42:03.555Z,4.20
2022-10-18T01:44:31.380Z,3.40
2022-10-18T01:46:58.850Z,3.70
2022-10-18T01:49:28.985Z,3.70
2022-10-18T01:51:55.975Z,4.20
2022-10-18T01:54:27.352Z,4.10
2022-10-18T01:57:23.479Z,3.10
2022-10-18T02:00:14.521Z,3.60
2022-10-18T02:02:47.144Z,3.30
2022-10-18T02:05:32.880Z,3.60
2022-10-18T02:08:26.809Z,3.50
2022-10-18T02:10:57.605Z,3.70
2022-10-18T02:13:25.781Z,3.30
2022-10-18T02:15:56.008Z,4.00
2022-10-18T02:18:25.562Z,3.40
2022-10-18T02:20:52.745Z,3.50
2022-10-18T02:23:21.305Z,3.60
2022-10-18T02:25:48.705Z,3.40
2022-10-18T02:28:15.443Z,3.00
2022-10-18T02:30:57.670Z,3.60
2022-10-18T02:33:52.749Z,3.30
2022-10-18T02:36:24.171Z,3.60
2022-10-18T02:38:54.235Z,3.00
2022-10-18T02:41:25.243Z,3.70
2022-10-18T02:43:52.260Z,3.00
2022-10-18T02:46:19.762Z,3.50
2022-10-18T02:48:46.810Z,3.30
2022-10-18T02:51:13.609Z,3.20
2022-10-18T02:53:40.519Z,3.70
2022-10-18T02:56:07.604Z,3.50
2022-10-18T02:58:37.017Z,3.20
2022-10-18T03:01:03.768Z,2.80
2022-10-18T03:03:30.613Z,3.40
2022-10-18T03:05:58.410Z,3.40
2022-10-18T03:08:26.135Z,3.00
2022-10-18T03:10:53.111Z,3.30
2022-10-18T03:13:21.439Z,3.20
2022-10-18T03:15:49.382Z,3.50
2022-10-18T03:18:16.338Z,3.20
2022-10-18T03:20:43.207Z,3.30
2022-10-18T03:23:10.659Z,3.30
2022-10-18T03:25:40.546Z,3.50
2022-10-18T03:28:10.165Z,3.10
2022-10-18T03:30:38.787Z,3.00
2022-10-18T03:33:06.489Z,2.90
2022-10-18T03:35:33.363Z,3.10
2022-10-18T03:38:00.504Z,3.40
2022-10-18T03:40:27.789Z,3.10
2022-10-18T03:42:54.773Z,3.60
2022-10-18T03:45:21.460Z,2.90
2022-10-18T03:47:48.303Z,2.90
2022-10-18T03:50:15.281Z,3.20
2022-10-18T03:52:42.184Z,3.20
2022-10-18T03:55:09.309Z,3.10
2022-10-18T03:57:38.034Z,3.30
2022-10-18T04:00:05.220Z,3.20
2022-10-18T04:02:40.387Z,3.40
2022-10-18T04:05:07.598Z,3.60
2022-10-18T04:07:37.973Z,3.00
2022-10-18T04:10:06.660Z,3.70
2022-10-18T04:12:35.878Z,3.20
2022-10-18T04:15:03.068Z,2.90
2022-10-18T04:17:33.973Z,3.30
2022-10-18T04:20:03.440Z,3.30
2022-10-18T04:22:31.124Z,3.00
2022-10-18T04:24:58.540Z,3.30
2022-10-18T04:27:25.294Z,3.90
2022-10-18T04:29:52.003Z,3.30
2022-10-18T04:32:18.867Z,3.40
2022-10-18T04:34:45.804Z,3.10
2022-10-18T04:37:12.528Z,3.20
2022-10-18T04:39:39.830Z,3.00
2022-10-18T04:42:06.751Z,3.30
2022-10-18T04:44:34.624Z,3.50
2022-10-18T04:47:02.096Z,3.10
2022-10-18T04:49:28.892Z,2.90
2022-10-18T04:51:55.674Z,2.80
2022-10-18T04:54:23.989Z,3.10
2022-10-18T04:56:53.646Z,2.80
2022-10-18T04:59:20.494Z,3.00
2022-10-18T05:01:48.825Z,2.80
2022-10-18T05:04:15.627Z,3.20
2022-10-18T05:06:49.079Z,3.00
2022-10-18T05:09:15.988Z,2.60
2022-10-18T05:11:42.704Z,2.80
2022-10-18T05:14:10.278Z,2.80
2022-10-18T05:16:38.294Z,2.40
2022-10-18T05:19:05.768Z,3.20
2022-10-18T05:21:33.659Z,2.70
2022-10-18T05:24:03.865Z,2.70
2022-10-18T05:26:30.835Z,2.60
2022-10-18T05:28:57.680Z,3.00
2022-10-18T05:31:24.975Z,3.00
2022-10-18T05:33:52.487Z,3.00
2022-10-18T05:36:19.284Z,2.90
2022-10-18T05:38:47.995Z,3.00
2022-10-18T05:41:15.210Z,3.20
2022-10-18T05:43:42.042Z,3.10
2022-10-18T05:46:14.655Z,2.80
2022-10-18T05:48:44.078Z,2.90
2022-10-18T05:51:13.298Z,2.90
2022-10-18T05:53:40.878Z,3.00
2022-10-18T05:56:07.922Z,3.10
2022-10-18T05:58:35.471Z,2.80
2022-10-18T06:01:02.990Z,3.00
2022-10-18T06:03:30.945Z,3.10
2022-10-18T06:06:06.080Z,4.00
2022-10-18T06:08:33.181Z,3.20
2022-10-18T06:11:00.382Z,2.90
2022-10-18T06:13:29.986Z,2.40
2022-10-18T06:15:58.271Z,3.50
2022-10-18T06:18:25.370Z,3.20
2022-10-18T06:20:59.202Z,3.10
2022-10-18T06:23:27.218Z,3.20
2022-10-18T06:25:54.574Z,3.20
2022-10-18T06:28:21.593Z,3.60
2022-10-18T06:30:48.332Z,3.10
2022-10-18T06:33:15.142Z,3.10
2022-10-18T06:35:42.021Z,3.40
2022-10-18T06:38:09.833Z,3.50
2022-10-18T06:40:38.148Z,3.30
2022-10-18T06:43:20.159Z,2.80
2022-10-18T06:45:49.096Z,3.60
2022-10-18T06:48:17.218Z,3.50
2022-10-18T06:50:56.810Z,3.20
2022-10-18T06:53:25.084Z,3.20
2022-10-18T06:55:52.445Z,3.50
2022-10-18T06:58:19.206Z,3.40
2022-10-18T07:00:47.165Z,3.60
2022-10-18T07:03:15.746Z,3.70
2022-10-18T07:05:42.827Z,4.30
2022-10-18T07:08:09.770Z,3.50
2022-10-18T07:13:30.461Z,3.40
2022-10-18T07:16:10.662Z,2.90
2022-10-18T07:18:45.946Z,3.30
2022-10-18T07:21:14.158Z,3.40
2022-10-18T07:23:42.830Z,3.20
2022-10-18T07:26:27.316Z,3.90
2022-10-18T07:28:59.167Z,3.10
2022-10-18T07:31:26.315Z,3.60
2022-10-18T07:33:54.204Z,3.40
2022-10-18T07:36:22.142Z,3.80
2022-10-18T07:38:49.780Z,3.30
2022-10-18T07:41:16.610Z,3.80
2022-10-18T07:43:45.766Z,3.40
2022-10-18T07:46:12.774Z,3.30
2022-10-18T07:48:39.680Z,2.80
2022-10-18T07:51:06.660Z,3.20
2022-10-18T07:53:34.681Z,3.20
2022-10-18T07:56:04.718Z,3.20
2022-10-18T07:58:35.271Z,3.10
2022-10-18T08:01:03.694Z,2.70
2022-10-18T08:03:31.689Z,3.10
2022-10-18T08:05:59.114Z,2.70
2022-10-18T08:08:26.364Z,3.00
2022-10-18T08:10:55.498Z,2.90
2022-10-18T08:13:26.857Z,3.10
2022-10-18T08:16:01.743Z,3.30
2022-10-18T08:18:30.644Z,2.90
2022-10-18T08:23:27.012Z,2.70
2022-10-18T08:25:54.055Z,2.70
2022-10-18T08:28:21.136Z,3.50
2022-10-18T08:30:48.310Z,3.40
2022-10-18T08:33:15.223Z,2.90
2022-10-18T08:35:42.231Z,3.00
2022-10-18T08:38:16.466Z,2.70
2022-10-18T08:40:45.145Z,2.60
2022-10-18T08:43:21.915Z,2.70
2022-10-18T08:45:50.618Z,3.00
2022-10-18T08:48:23.579Z,2.80
2022-10-18T08:50:52.409Z,2.80
2022-10-18T08:53:20.358Z,3.10
2022-10-18T08:56:21.657Z,2.90
2022-10-18T08:58:48.421Z,2.50
2022-10-18T09:01:18.695Z,3.10
2022-10-18T09:04:36.503Z,3.00
2022-10-18T09:07:24.264Z,3.40
2022-10-18T09:10:01.164Z,3.40
2022-10-18T09:12:49.096Z,3.00
2022-10-18T09:15:34.551Z,2.80
2022-10-18T09:18:37.349Z,3.00
2022-10-18T09:21:20.684Z,3.20
2022-10-18T09:23:49.478Z,2.60
2022-10-18T09:26:20.159Z,2.70
2022-10-18T09:29:13.546Z,2.90
2022-10-18T09:31:44.794Z,3.00
2022-10-18T09:34:23.076Z,2.60
2022-10-18T09:36:51.545Z,2.60
2022-10-18T09:39:38.676Z,2.90
2022-10-18T09:42:29.880Z,2.50
2022-10-18T09:45:14.453Z,2.90
2022-10-18T09:47:45.278Z,2.60
2022-10-18T09:50:24.417Z,2.60
2022-10-18T09:52:53.437Z,2.60
2022-10-18T09:55:26.637Z,2.30
2022-10-18T09:57:55.800Z,2.60
2022-10-18T10:00:31.794Z,2.80
2022-10-18T10:03:00.078Z,2.60
2022-10-18T10:05:26.849Z,2.60
2022-10-18T10:07:59.920Z,2.60
2022-10-18T10:10:27.727Z,2.70
2022-10-18T10:15:37.095Z,2.40
2022-10-18T10:18:19.389Z,2.70
2022-10-18T10:20:48.842Z,2.90
2022-10-18T10:23:44.589Z,3.00
2022-10-18T10:26:38.778Z,2.60
2022-10-18T10:29:47.811Z,2.30
2022-10-18T10:32:16.316Z,3.00
2022-10-18T10:34:44.813Z,2.50
2022-10-18T10:37:34.073Z,2.90
2022-10-18T10:40:23.084Z,2.70
2022-10-18T10:43:12.722Z,3.00
2022-10-18T10:46:23.203Z,2.60
2022-10-18T10:49:13.923Z,2.70
2022-10-18T10:51:41.741Z,2.90
2022-10-18T10:54:16.652Z,2.50
2022-10-18T10:56:55.683Z,2.60
2022-10-18T10:59:23.012Z,3.00
2022-10-18T11:01:51.464Z,2.90
2022-10-18T11:04:28.131Z,2.90
2022-10-18T11:07:20.494Z,3.00
2022-10-18T11:10:12.517Z,2.20
2022-10-18T11:12:49.835Z,2.40
2022-10-18T11:15:26.246Z,2.40
2022-10-18T11:18:10.886Z,2.50
2022-10-18T11:20:43.069Z,2.70
2022-10-18T11:23:17.316Z,2.60
2022-10-18T11:26:02.838Z,2.60
2022-10-18T11:28:48.427Z,2.70
2022-10-18T11:31:31.401Z,2.50
2022-10-18T11:34:23.162Z,2.50
2022-10-18T11:37:28.204Z,2.20
2022-10-18T11:42:56.162Z,2.60
2022-10-18T11:45:26.016Z,2.20
2022-10-18T11:48:10.358Z,2.20
2022-10-18T11:50:39.775Z,2.60
2022-10-18T11:53:35.235Z,2.30
2022-10-18T11:56:17.077Z,2.30
2022-10-18T11:58:51.451Z,2.70
2022-10-18T12:01:30.198Z,2.50
2022-10-18T12:04:28.087Z,2.50
2022-10-18T12:06:55.629Z,2.40
2022-10-18T12:09:42.254Z,2.40
2022-10-18T12:12:15.318Z,2.10
2022-10-18T12:14:48.492Z,2.10
2022-10-18T12:17:48.922Z,2.20
2022-10-18T12:20:21.046Z,2.10
2022-10-18T12:22:55.435Z,2.40
2022-10-18T12:25:22.313Z,2.50
2022-10-18T12:28:13.485Z,2.60
2022-10-18T12:30:46.492Z,2.60
2022-10-18T12:33:27.662Z,2.60
2022-10-18T12:36:22.772Z,2.80
2022-10-18T12:39:05.115Z,2.60
2022-10-18T12:44:30.904Z,2.40
2022-10-18T12:47:02.008Z,2.50
2022-10-18T12:49:37.418Z,2.30
2022-10-18T12:52:08.176Z,2.40
2022-10-18T12:54:36.812Z,3.00
2022-10-18T12:57:05.314Z,2.60
2022-10-18T13:02:04.770Z,2.10
2022-10-18T13:04:32.584Z,2.40
2022-10-18T13:07:05.647Z,2.60
2022-10-18T13:09:37.220Z,2.50
2022-10-18T13:12:08.956Z,2.60
2022-10-18T13:15:20.653Z,2.40
2022-10-18T13:17:51.898Z,4.00
2022-10-18T13:20:38.330Z,3.20
2022-10-18T13:23:23.622Z,2.60
2022-10-18T13:26:09.422Z,2.50
2022-10-18T13:28:59.141Z,2.90
2022-10-18T13:31:35.515Z,2.30
2022-10-18T13:34:27.709Z,2.30
2022-10-18T13:37:27.158Z,2.70
2022-10-18T13:40:21.348Z,2.40
2022-10-18T13:42:49.124Z,2.60
2022-10-18T13:45:31.540Z,2.70
2022-10-18T13:48:30.541Z,2.30
2022-10-18T13:51:00.933Z,2.40
2022-10-18T13:53:54.035Z,2.40
2022-10-18T13:56:34.890Z,2.60
2022-10-18T13:59:33.637Z,2.40
2022-10-18T14:02:49.421Z,2.50
2022-10-18T14:05:25.462Z,2.40
2022-10-18T14:07:52.853Z,2.30
2022-10-18T14:10:43.254Z,2.50
2022-10-18T14:13:20.238Z,2.60
2022-10-18T14:16:10.981Z,2.30
2022-10-18T14:18:37.962Z,2.30
2022-10-18T14:21:14.590Z,2.30
2022-10-18T14:23:44.690Z,2.90
2022-10-18T14:26:17.457Z,2.40
2022-10-18T14:28:59.642Z,2.20
2022-10-18T14:31:29.434Z,2.60
2022-10-18T14:33:58.345Z,2.30
2022-10-18T14:36:40.925Z,2.70
2022-10-18T14:39:14.838Z,2.30
2022-10-18T14:41:49.865Z,3.00
2022-10-18T14:44:21.332Z,5.30
2022-10-18T14:46:52.280Z,3.00
2022-10-18T14:49:19.876Z,3.60
2022-10-18T14:51:49.471Z,3.00
2022-10-18T14:54:18.422Z,2.80
2022-10-18T14:56:45.554Z,3.00
2022-10-18T14:59:23.967Z,3.30
2022-10-18T15:01:59.759Z,3.50
2022-10-18T15:04:33.185Z,3.70
2022-10-18T15:07:04.634Z,4.30
2022-10-18T15:09:33.448Z,3.90
2022-10-18T15:12:00.933Z,3.90
2022-10-18T15:14:28.078Z,3.80
2022-10-18T15:17:00.900Z,3.80
2022-10-18T15:19:30.139Z,3.90
2022-10-18T15:22:30.282Z,6.50
2022-10-18T15:25:08.351Z,4.90
2022-10-18T15:27:37.912Z,4.30
2022-10-18T15:30:11.182Z,6.70
2022-10-18T15:32:38.314Z,4.90
2022-10-18T15:35:13.720Z,5.70
2022-10-18T15:37:42.167Z,5.20
2022-10-18T15:40:21.611Z,7.80
2022-10-18T15:42:49.633Z,11.30
2022-10-18T15:45:25.467Z,20.40
2022-10-18T15:48:09.309Z,35.40
2022-10-18T15:50:41.691Z,40.00
2022-10-18T15:53:23.043Z,24.00
2022-10-18T15:55:52.805Z,13.50
2022-10-18T15:58:23.921Z,15.30
2022-10-18T16:00:51.203Z,9.10
2022-10-18T16:03:18.387Z,10.30
2022-10-18T16:05:45.273Z,9.30
2022-10-18T16:08:28.307Z,8.30
2022-10-18T16:10:57.704Z,14.70
2022-10-18T16:13:25.094Z,8.30
2022-10-18T16:15:52.190Z,5.80
2022-10-18T16:18:20.501Z,13.80
2022-10-18T16:20:47.876Z,8.80
2022-10-18T16:23:19.132Z,13.00
2022-10-18T16:25:46.077Z,8.50
2022-10-18T16:28:23.486Z,7.80
2022-10-18T16:30:58.041Z,8.20
2022-10-18T16:33:25.180Z,5.10
2022-10-18T16:35:54.541Z,7.60
2022-10-18T16:38:32.639Z,11.30
2022-10-18T16:41:04.646Z,8.50
2022-10-18T16:43:32.671Z,5.60
2022-10-18T16:46:02.140Z,7.60
2022-10-18T16:48:29.296Z,9.00
2022-10-18T16:50:56.774Z,8.50
2022-10-18T16:53:25.071Z,7.20
2022-10-18T16:55:56.171Z,13.30
2022-10-18T17:00:56.324Z,9.70
2022-10-18T17:03:28.113Z,9.40
2022-10-18T17:05:56.371Z,10.30
2022-10-18T17:08:25.526Z,6.20
2022-10-18T17:10:54.229Z,6.00
2022-10-18T17:13:25.060Z,7.30
2022-10-18T17:15:52.148Z,8.30
2022-10-18T17:18:22.943Z,6.50
2022-10-18T17:20:50.425Z,5.90
2022-10-18T17:23:17.313Z,5.20
2022-10-18T17:25:57.620Z,6.60
2022-10-18T17:28:32.523Z,5.40
2022-10-18T17:30:59.601Z,4.10
2022-10-18T17:33:26.403Z,4.60
2022-10-18T17:35:53.323Z,5.40
2022-10-18T17:38:20.657Z,4.90
2022-10-18T17:40:48.091Z,4.90
2022-10-18T17:43:15.190Z,4.30
2022-10-18T17:45:51.274Z,4.50
2022-10-18T17:48:18.329Z,5.00
2022-10-18T17:50:45.717Z,7.10
2022-10-18T17:53:13.282Z,4.70
2022-10-18T17:55:40.336Z,5.10
2022-10-18T17:58:07.474Z,4.80
2022-10-18T18:00:34.590Z,3.90
2022-10-18T18:03:01.604Z,3.80
2022-10-18T18:05:32.189Z,4.20
2022-10-18T18:08:03.569Z,3.80
2022-10-18T18:10:33.312Z,4.70
2022-10-18T18:13:00.864Z,4.30
2022-10-18T18:15:28.135Z,7.10
2022-10-18T18:17:57.419Z,4.80
2022-10-18T18:20:27.029Z,4.30
2022-10-18T18:23:00.374Z,3.90
2022-10-18T18:25:27.860Z,4.30
2022-10-18T18:27:54.880Z,3.50
2022-10-18T18:30:23.260Z,3.80
2022-10-18T18:32:50.532Z,6.30
2022-10-18T18:35:18.040Z,4.50
2022-10-18T18:37:45.091Z,4.10
2022-10-18T18:40:12.346Z,4.00
2022-10-18T18:42:39.164Z,4.40
2022-10-18T18:45:06.573Z,4.10
2022-10-18T18:47:35.715Z,4.30
2022-10-18T18:50:02.820Z,5.90
2022-10-18T18:52:30.008Z,5.20
2022-10-18T18:54:57.028Z,5.10
2022-10-18T18:57:23.946Z,4.40
2022-10-18T18:59:50.758Z,4.60
2022-10-18T19:02:18.580Z,4.50
2022-10-18T19:04:45.415Z,4.00
2022-10-18T19:07:13.017Z,4.30
2022-10-18T19:09:42.308Z,4.20
2022-10-18T19:12:09.290Z,3.80
2022-10-18T19:14:37.378Z,4.00
2022-10-18T19:17:08.019Z,4.20
2022-10-18T19:19:35.290Z,4.60
2022-10-18T19:22:08.505Z,4.10
2022-10-18T19:24:35.522Z,4.30
2022-10-18T19:27:09.676Z,4.40
2022-10-18T19:29:37.551Z,4.30
2022-10-18T19:32:07.051Z,3.90
2022-10-18T19:34:37.205Z,4.20
2022-10-18T19:37:04.756Z,3.80
2022-10-18T19:39:33.175Z,4.40
2022-10-18T19:42:03.333Z,4.30
2022-10-18T19:44:31.422Z,4.30
2022-10-18T19:46:58.392Z,4.10
2022-10-18T19:49:26.126Z,4.10
2022-10-18T19:51:52.973Z,4.20
2022-10-18T19:54:20.240Z,3.90
2022-10-18T19:56:47.346Z,4.20
2022-10-18T19:59:15.820Z,4.60
2022-10-18T20:01:43.282Z,4.00
2022-10-18T20:04:10.435Z,4.40
2022-10-18T20:06:38.386Z,4.30
2022-10-18T20:09:07.877Z,4.10
2022-10-18T20:11:35.261Z,3.80
2022-10-18T20:14:05.370Z,4.40
2022-10-18T20:16:33.097Z,3.70
2022-10-18T20:19:01.281Z,3.80
2022-10-18T20:21:29.325Z,4.20
2022-10-18T20:23:56.147Z,4.00
2022-10-18T20:26:23.097Z,3.80
2022-10-18T20:28:56.643Z,4.00
2022-10-18T20:31:25.380Z,4.50
2022-10-18T20:33:54.713Z,3.90
2022-10-18T20:36:21.632Z,4.10
2022-10-18T20:38:49.024Z,3.80
2022-10-18T20:41:33.775Z,3.90
2022-10-18T20:44:05.578Z,4.40
2022-10-18T20:46:35.919Z,4.70
2022-10-18T20:49:03.300Z,4.20
2022-10-18T20:51:30.188Z,4.00
2022-10-18T20:53:57.046Z,4.60
2022-10-18T20:56:26.416Z,4.20
2022-10-18T20:58:57.969Z,4.10
2022-10-18T21:01:29.595Z,4.70
2022-10-18T21:03:57.490Z,3.90
2022-10-18T21:06:28.310Z,4.00
2022-10-18T21:09:00.676Z,4.60
2022-10-18T21:11:28.233Z,4.10
2022-10-18T21:13:57.515Z,4.90
2022-10-18T21:16:24.461Z,4.60
2022-10-18T21:18:51.368Z,4.30
2022-10-18T21:21:20.063Z,4.80
2022-10-18T21:23:48.171Z,4.10
2022-10-18T21:26:16.912Z,4.60
2022-10-18T21:28:44.838Z,4.00
2022-10-18T21:31:16.969Z,4.50
2022-10-18T21:33:44.586Z,4.20
2022-10-18T21:36:12.211Z,4.80
2022-10-18T21:38:39.458Z,4.20
2022-10-18T21:41:10.764Z,4.60
2022-10-18T21:43:39.650Z,4.40
2022-10-18T21:46:07.306Z,4.20
2022-10-18T21:48:34.256Z,3.80
2022-10-18T21:51:05.363Z,4.40
2022-10-18T21:53:32.782Z,4.70
2022-10-18T21:56:13.355Z,4.80
2022-10-18T21:58:40.374Z,4.50
2022-10-18T22:01:11.645Z,4.20
2022-10-18T22:03:38.577Z,4.40
2022-10-18T22:06:08.848Z,4.90
2022-10-18T22:08:35.916Z,4.00
2022-10-18T22:11:06.131Z,4.80
2022-10-18T22:13:33.753Z,4.40
2022-10-18T22:16:02.586Z,4.10
2022-10-18T22:18:29.983Z,4.60
2022-10-18T22:20:58.087Z,4.30
2022-10-18T22:23:25.078Z,4.50
2022-10-18T22:25:52.212Z,4.60
2022-10-18T22:28:19.055Z,4.70
2022-10-18T22:30:45.789Z,4.20
2022-10-18T22:33:12.758Z,4.70
2022-10-18T22:35:39.600Z,4.10
2022-10-18T22:38:06.555Z,3.70
2022-10-18T22:40:33.990Z,4.10
2022-10-18T22:43:00.961Z,4.30
2022-10-18T22:45:27.892Z,4.40
2022-10-18T22:47:55.524Z,4.20
2022-10-18T22:50:22.329Z,4.40
2022-10-18T22:52:51.546Z,4.40
2022-10-18T22:55:20.801Z,4.20
2022-10-18T22:57:47.675Z,3.80
2022-10-18T23:00:14.867Z,4.40
2022-10-18T23:02:41.871Z,4.50
2022-10-18T23:05:08.902Z,4.20
2022-10-18T23:09:15.321Z,4.60
2022-10-18T23:11:48.158Z,4.30
2022-10-18T23:16:43.217Z,3.60
2022-10-18T23:19:15.065Z,4.10
2022-10-18T23:29:25.316Z,4.00
2022-10-18T23:31:54.328Z,4.40
2022-10-18T23:34:21.207Z,4.80
2022-10-18T23:36:48.134Z,4.10
2022-10-18T23:39:15.956Z,4.50
2022-10-18T23:41:42.713Z,4.20
2022-10-18T23:44:11.154Z,4.20
2022-10-18T23:46:38.349Z,3.80
2022-10-18T23:49:06.394Z,3.80
2022-10-18T23:51:33.389Z,4.40
2022-10-18T23:54:00.268Z,4.30
2022-10-18T23:56:27.226Z,4.30
2022-10-18T23:58:54.302Z,4.30
